createdAt,value
2023-07-03T00:00:13.447Z,101222.78
2023-07-03T00:02:40.895Z,101224.06
2023-07-03T00:05:12.428Z,101215.19
2023-07-03T00:07:40.411Z,101211.59
2023-07-03T00:10:08.651Z,101192.78
2023-07-03T00:12:35.977Z,101193.09
2023-07-03T00:15:03.146Z,101190.44
2023-07-03T00:17:30.049Z,101195.72
2023-07-03T00:19:56.901Z,101195.94
2023-07-03T00:22:23.987Z,101186.53
2023-07-03T00:24:50.807Z,101187.09
2023-07-03T00:27:18.343Z,101193.81
2023-07-03T00:29:45.385Z,101179.28
2023-07-03T00:32:12.500Z,101176.09
2023-07-03T00:34:39.428Z,101173.69
2023-07-03T00:37:06.388Z,101171.03
2023-07-03T00:39:33.642Z,101169.38
2023-07-03T00:42:01.133Z,101169.56
2023-07-03T00:44:27.989Z,101175.59
2023-07-03T00:46:54.802Z,101175.28
2023-07-03T00:49:21.905Z,101176.56
2023-07-03T00:51:54.863Z,101178.13
2023-07-03T00:54:21.955Z,101178.75
2023-07-03T00:56:48.824Z,101175.47
2023-07-03T00:59:16.566Z,101179.16
2023-07-03T01:01:46.403Z,101176.31
2023-07-03T01:04:16.631Z,101180.31
2023-07-03T01:06:58.048Z,101194.69
2023-07-03T01:09:26.791Z,101186.88
2023-07-03T01:11:54.004Z,101183.47
2023-07-03T01:14:23.824Z,101184.09
2023-07-03T01:16:52.068Z,101165.88
2023-07-03T01:19:25.301Z,101168.47
2023-07-03T01:22:25.416Z,101164.25
2023-07-03T01:24:56.843Z,101161.38
2023-07-03T01:27:29.583Z,101157.47
2023-07-03T01:29:58.676Z,101146.09
2023-07-03T01:32:29.860Z,101132.28
2023-07-03T01:34:58.738Z,101122.69
2023-07-03T01:37:27.832Z,101130.91
2023-07-03T01:39:56.825Z,101121.84
2023-07-03T01:42:26.964Z,101112.78
2023-07-03T01:44:53.805Z,101113.19
2023-07-03T01:47:21.673Z,101108.44
2023-07-03T01:49:50.105Z,101071.50
2023-07-03T01:52:16.805Z,101092.72
2023-07-03T01:55:00.167Z,101090.00
2023-07-03T01:57:53.764Z,101096.09
2023-07-03T02:00:29.761Z,101084.91
2023-07-03T02:03:00.602Z,101086.28
2023-07-03T02:05:31.680Z,101084.19
2023-07-03T02:08:01.768Z,101080.38
2023-07-03T02:10:28.766Z,101078.91
2023-07-03T02:12:55.697Z,101070.38
2023-07-03T02:15:22.636Z,101068.59
2023-07-03T02:17:53.385Z,101076.06
2023-07-03T02:20:20.525Z,101065.44
2023-07-03T02:22:47.387Z,101063.81
2023-07-03T02:25:14.492Z,101065.44
2023-07-03T02:27:44.426Z,101052.66
2023-07-03T02:30:12.409Z,101049.59
2023-07-03T02:32:41.480Z,101040.22
2023-07-03T02:35:10.006Z,101034.22
2023-07-03T02:37:37.788Z,101036.41
2023-07-03T02:40:14.413Z,101037.44
2023-07-03T02:42:41.955Z,101018.38
2023-07-03T02:45:09.296Z,101017.97
2023-07-03T02:47:39.659Z,101002.03
2023-07-03T02:50:08.665Z,100999.31
2023-07-03T02:52:35.545Z,100993.59
2023-07-03T02:55:02.399Z,101000.44
2023-07-03T02:57:29.732Z,100986.03
2023-07-03T02:59:56.672Z,100970.31
2023-07-03T03:02:23.524Z,100972.31
2023-07-03T03:04:50.471Z,100958.81
2023-07-03T03:07:17.336Z,100936.13
2023-07-03T03:09:44.306Z,100950.16
2023-07-03T03:12:11.155Z,100943.63
2023-07-03T03:14:38.274Z,100947.31
2023-07-03T03:17:05.288Z,100929.28
2023-07-03T03:19:32.139Z,100928.88
2023-07-03T03:21:58.978Z,100932.88
2023-07-03T03:24:26.911Z,100923.81
2023-07-03T03:26:53.765Z,100923.38
2023-07-03T03:29:20.655Z,100918.97
2023-07-03T03:31:47.441Z,100917.81
2023-07-03T03:34:14.249Z,100923.41
2023-07-03T03:36:41.448Z,100930.75
2023-07-03T03:39:08.510Z,100915.28
2023-07-03T03:41:35.309Z,100913.88
2023-07-03T03:44:02.154Z,100905.03
2023-07-03T03:46:28.976Z,100903.97
2023-07-03T03:48:55.870Z,100902.06
2023-07-03T03:51:23.017Z,100886.25
2023-07-03T03:53:49.919Z,100863.91
2023-07-03T03:56:16.784Z,100874.84
2023-07-03T03:58:43.577Z,100863.63
2023-07-03T04:01:10.340Z,100855.72
2023-07-03T04:03:37.137Z,100849.47
2023-07-03T04:06:04.034Z,100844.38
2023-07-03T04:08:31.174Z,100847.75
2023-07-03T04:10:58.902Z,100854.66
2023-07-03T04:13:25.931Z,100850.38
2023-07-03T04:15:55.919Z,100854.59
2023-07-03T04:18:24.543Z,100849.28
2023-07-03T04:20:52.032Z,100835.56
2023-07-03T04:23:19.586Z,100838.00
2023-07-03T04:25:46.472Z,100850.13
2023-07-03T04:28:14.341Z,100847.84
2023-07-03T04:30:41.143Z,100853.13
2023-07-03T04:33:08.022Z,100851.53
2023-07-03T04:35:35.014Z,100850.59
2023-07-03T04:38:02.656Z,100854.22
2023-07-03T04:40:31.100Z,100839.09
2023-07-03T04:42:58.585Z,100841.34
2023-07-03T04:45:26.963Z,100845.75
2023-07-03T04:47:54.433Z,100845.91
2023-07-03T04:50:26.438Z,100850.84
2023-07-03T04:52:55.553Z,100845.00
2023-07-03T04:55:23.671Z,100844.59
2023-07-03T04:57:50.940Z,100843.63
2023-07-03T05:00:20.414Z,100849.59
2023-07-03T05:02:49.420Z,100855.44
2023-07-03T05:05:18.473Z,100853.25
2023-07-03T05:07:46.480Z,100855.25
2023-07-03T05:10:15.644Z,100855.03
2023-07-03T05:12:42.599Z,100854.31
2023-07-03T05:15:11.030Z,100854.16
2023-07-03T05:17:40.178Z,100856.47
2023-07-03T05:20:15.258Z,100867.09
2023-07-03T05:22:44.830Z,100868.63
2023-07-03T05:25:13.627Z,100856.56
2023-07-03T05:27:40.836Z,100865.78
2023-07-03T05:30:09.565Z,100868.53
2023-07-03T05:32:37.256Z,100873.22
2023-07-03T05:35:05.436Z,100865.22
2023-07-03T05:37:33.328Z,100872.28
2023-07-03T05:40:00.248Z,100872.09
2023-07-03T05:42:27.202Z,100876.53
2023-07-03T05:44:53.984Z,100876.28
2023-07-03T05:47:20.887Z,100881.69
2023-07-03T05:49:49.742Z,100863.81
2023-07-03T05:52:16.756Z,100871.72
2023-07-03T05:54:43.532Z,100864.44
2023-07-03T05:57:12.233Z,100879.47
2023-07-03T05:59:41.179Z,100875.25
2023-07-03T06:02:12.918Z,100881.13
2023-07-03T06:04:40.071Z,100873.75
2023-07-03T06:07:07.875Z,100871.28
2023-07-03T06:09:36.533Z,100876.94
2023-07-03T06:12:05.213Z,100876.84
2023-07-03T06:14:33.285Z,100882.50
2023-07-03T06:17:00.724Z,100879.50
2023-07-03T06:19:29.539Z,100890.19
2023-07-03T06:21:56.850Z,100892.53
2023-07-03T06:24:23.960Z,100883.63
2023-07-03T06:26:52.340Z,100890.13
2023-07-03T06:29:19.686Z,100897.13
2023-07-03T06:31:46.709Z,100902.16
2023-07-03T06:34:13.609Z,100911.97
2023-07-03T06:36:40.721Z,100913.75
2023-07-03T06:39:09.568Z,100911.63
2023-07-03T06:41:37.067Z,100908.78
2023-07-03T06:44:05.410Z,100910.09
2023-07-03T06:46:32.543Z,100908.88
2023-07-03T06:48:59.482Z,100902.13
2023-07-03T06:51:26.659Z,100909.22
2023-07-03T06:53:53.527Z,100912.59
2023-07-03T06:56:21.249Z,100910.34
2023-07-03T06:58:51.957Z,100911.06
2023-07-03T07:01:30.056Z,100911.31
2023-07-03T07:03:57.611Z,100913.66
2023-07-03T07:06:30.397Z,100918.41
2023-07-03T07:08:58.049Z,100922.50
2023-07-03T07:11:31.959Z,100923.66
2023-07-03T07:14:00.635Z,100917.72
2023-07-03T07:16:33.200Z,100929.94
2023-07-03T07:19:04.910Z,100926.75
2023-07-03T07:21:34.989Z,100933.34
2023-07-03T07:24:12.600Z,100937.25
2023-07-03T07:26:39.482Z,100942.25
2023-07-03T07:29:06.287Z,100940.81
2023-07-03T07:31:33.383Z,100945.69
2023-07-03T07:34:00.249Z,100949.69
2023-07-03T07:36:27.887Z,100951.19
2023-07-03T07:38:56.631Z,100945.56
2023-07-03T07:41:26.718Z,100955.88
2023-07-03T07:43:54.907Z,100950.41
2023-07-03T07:46:26.566Z,100958.88
2023-07-03T07:48:53.724Z,100960.59
2023-07-03T07:51:20.522Z,100952.88
2023-07-03T07:53:47.393Z,100959.47
2023-07-03T07:56:15.182Z,100958.47
2023-07-03T07:58:41.973Z,100956.00
2023-07-03T08:01:12.211Z,100950.88
2023-07-03T08:03:40.915Z,100951.09
2023-07-03T08:06:07.898Z,100949.59
2023-07-03T08:08:35.129Z,100955.97
2023-07-03T08:11:05.290Z,100956.19
2023-07-03T08:13:34.142Z,100947.88
2023-07-03T08:16:01.335Z,100955.13
2023-07-03T08:18:28.919Z,100962.34
2023-07-03T08:20:55.869Z,100960.28
2023-07-03T08:23:23.103Z,100968.09
2023-07-03T08:25:52.514Z,100963.75
2023-07-03T08:28:19.680Z,100969.91
2023-07-03T08:30:47.518Z,100973.00
2023-07-03T08:33:15.665Z,100966.84
2023-07-03T08:38:12.920Z,100956.50
2023-07-03T08:40:40.161Z,100960.41
2023-07-03T08:43:12.230Z,100960.09
2023-07-03T08:45:42.668Z,100959.22
2023-07-03T08:48:18.183Z,100961.72
2023-07-03T08:50:48.774Z,100959.00
2023-07-03T08:53:20.643Z,100947.84
2023-07-03T08:55:54.500Z,100956.34
2023-07-03T08:58:21.502Z,100962.28
2023-07-03T09:01:13.154Z,100961.91
2023-07-03T09:04:07.309Z,100963.50
2023-07-03T09:07:06.616Z,100949.53
2023-07-03T09:09:58.910Z,100966.22
2023-07-03T09:12:31.674Z,100949.34
2023-07-03T09:15:07.479Z,100958.28
2023-07-03T09:17:35.544Z,100965.72
2023-07-03T09:20:05.348Z,100953.28
2023-07-03T09:22:53.990Z,100943.63
2023-07-03T09:25:46.668Z,100956.09
2023-07-03T09:28:13.865Z,100961.66
2023-07-03T09:30:40.977Z,100971.59
2023-07-03T09:33:08.412Z,100966.38
2023-07-03T09:35:37.810Z,100984.06
2023-07-03T09:38:10.502Z,100987.22
2023-07-03T09:40:39.782Z,100983.47
2023-07-03T09:43:14.961Z,100980.81
2023-07-03T09:45:44.461Z,100983.50
2023-07-03T09:48:23.085Z,100981.22
2023-07-03T09:51:05.679Z,100986.50
2023-07-03T09:53:40.108Z,100989.44
2023-07-03T09:56:17.330Z,100987.41
2023-07-03T09:58:50.765Z,100985.41
2023-07-03T10:07:07.878Z,100994.03
2023-07-03T10:12:13.465Z,100990.50
2023-07-03T10:14:40.700Z,100989.78
2023-07-03T10:17:13.850Z,100984.72
2023-07-03T10:19:44.727Z,100992.88
2023-07-03T10:22:15.573Z,100991.78
2023-07-03T10:24:44.186Z,100999.50
2023-07-03T10:27:14.659Z,100990.19
2023-07-03T10:29:47.884Z,100996.34
2023-07-03T10:32:17.377Z,100999.22
2023-07-03T10:34:58.897Z,101000.06
2023-07-03T10:37:27.444Z,101003.94
2023-07-03T10:40:01.627Z,100997.00
2023-07-03T10:42:38.293Z,101003.81
2023-07-03T10:45:14.679Z,101004.31
2023-07-03T10:47:50.029Z,101005.28
2023-07-03T10:50:20.361Z,101002.13
2023-07-03T10:53:03.841Z,101015.53
2023-07-03T10:55:43.576Z,101006.13
2023-07-03T10:58:22.574Z,101022.91
2023-07-03T11:01:19.855Z,101021.19
2023-07-03T11:04:15.905Z,101023.31
2023-07-03T11:07:14.972Z,101018.72
2023-07-03T11:09:50.240Z,101017.38
2023-07-03T11:12:43.970Z,101026.75
2023-07-03T11:15:38.772Z,101016.06
2023-07-03T11:24:07.761Z,101023.22
2023-07-03T11:29:14.827Z,101028.75
2023-07-03T11:31:44.546Z,101036.47
2023-07-03T11:36:57.178Z,101048.66
2023-07-03T11:44:47.668Z,101043.50
2023-07-03T11:47:24.212Z,101047.09
2023-07-03T11:49:54.843Z,101053.00
2023-07-03T11:52:32.279Z,101048.06
2023-07-03T11:55:06.912Z,101057.31
2023-07-03T11:57:38.008Z,101054.66
2023-07-03T12:00:17.071Z,101063.69
2023-07-03T12:02:49.986Z,101064.75
2023-07-03T12:05:50.999Z,101049.06
2023-07-03T12:08:24.222Z,101067.22
2023-07-03T12:10:51.025Z,101059.03
2023-07-03T12:13:28.258Z,101060.06
2023-07-03T12:15:59.963Z,101061.81
2023-07-03T12:18:27.393Z,101063.53
2023-07-03T12:21:03.113Z,101054.69
2023-07-03T12:23:33.019Z,101053.84
2023-07-03T12:26:02.985Z,101058.53
2023-07-03T12:28:30.200Z,101051.19
2023-07-03T12:31:23.270Z,101050.16
2023-07-03T12:33:59.228Z,101045.13
2023-07-03T12:36:38.666Z,101048.34
2023-07-03T12:39:16.071Z,101054.16
2023-07-03T12:41:43.093Z,101049.81
2023-07-03T12:44:14.503Z,101054.00
2023-07-03T12:46:45.835Z,101046.31
2023-07-03T12:49:15.553Z,101047.16
2023-07-03T12:51:51.521Z,101048.19
2023-07-03T12:54:18.984Z,101046.97
2023-07-03T12:56:46.367Z,101049.50
2023-07-03T12:59:17.824Z,101039.13
2023-07-03T13:01:53.318Z,101041.53
2023-07-03T13:04:34.544Z,101047.06
2023-07-03T13:07:03.782Z,101056.09
2023-07-03T13:09:32.981Z,101052.00
2023-07-03T13:12:00.026Z,101058.88
2023-07-03T13:14:29.308Z,101047.81
2023-07-03T13:17:02.422Z,101050.75
2023-07-03T13:19:36.636Z,101046.50
2023-07-03T13:22:11.021Z,101048.50
2023-07-03T13:24:49.060Z,101051.66
2023-07-03T13:27:24.732Z,101051.16
2023-07-03T13:29:58.896Z,101059.31
2023-07-03T13:32:26.801Z,101067.72
2023-07-03T13:34:56.841Z,101067.56
2023-07-03T13:37:26.672Z,101067.25
2023-07-03T13:40:01.293Z,101063.38
2023-07-03T13:42:30.363Z,101069.56
2023-07-03T13:44:57.119Z,101066.91
2023-07-03T13:47:26.550Z,101057.84
2023-07-03T13:49:55.419Z,101058.44
2023-07-03T13:52:22.207Z,101066.75
2023-07-03T13:54:49.225Z,101035.41
2023-07-03T13:57:16.088Z,101072.94
2023-07-03T13:59:42.876Z,101055.16
2023-07-03T14:02:09.673Z,101069.75
2023-07-03T14:04:36.680Z,101065.63
2023-07-03T14:07:03.609Z,101068.56
2023-07-03T14:09:30.385Z,101071.25
2023-07-03T14:11:57.303Z,101063.44
2023-07-03T14:14:24.471Z,101060.66
2023-07-03T14:16:53.040Z,101058.63
2023-07-03T14:19:20.156Z,101064.19
2023-07-03T14:21:46.923Z,101052.41
2023-07-03T14:24:13.790Z,101052.91
2023-07-03T14:26:41.493Z,101049.00
2023-07-03T14:29:08.316Z,101044.44
2023-07-03T14:31:36.162Z,101056.31
2023-07-03T14:34:03.149Z,101048.97
2023-07-03T14:36:29.947Z,101065.38
2023-07-03T14:38:56.710Z,101059.44
2023-07-03T14:41:23.737Z,101056.72
2023-07-03T14:43:50.664Z,101050.19
2023-07-03T14:46:17.501Z,101058.31
2023-07-03T14:48:44.364Z,101048.81
2023-07-03T14:51:11.231Z,101056.72
2023-07-03T14:53:38.462Z,101059.09
2023-07-03T14:56:06.008Z,101054.38
2023-07-03T15:01:03.760Z,101067.88
2023-07-03T15:03:31.656Z,101038.19
2023-07-03T15:05:58.730Z,101060.28
2023-07-03T15:08:27.139Z,101079.50
2023-07-03T15:10:54.234Z,101095.09
2023-07-03T15:13:21.072Z,101103.56
2023-07-03T15:15:49.941Z,101108.66
2023-07-03T15:18:17.238Z,101121.16
2023-07-03T15:20:44.232Z,101136.09
2023-07-03T15:23:11.067Z,101129.25
2023-07-03T15:25:38.015Z,101131.78
2023-07-03T15:28:04.998Z,101136.16
2023-07-03T15:30:31.807Z,101126.53
2023-07-03T15:32:58.635Z,101124.13
2023-07-03T15:35:25.419Z,101121.19
2023-07-03T15:37:52.289Z,101106.84
2023-07-03T15:40:19.147Z,101121.53
2023-07-03T15:42:46.847Z,101120.75
2023-07-03T15:45:14.576Z,101105.56
2023-07-03T15:47:45.034Z,101111.78
2023-07-03T15:50:11.983Z,101104.53
2023-07-03T15:52:38.728Z,101106.22
2023-07-03T15:55:06.241Z,101098.53
2023-07-03T15:57:33.070Z,101101.13
2023-07-03T16:00:00.165Z,101097.94
2023-07-03T16:02:27.011Z,101094.03
2023-07-03T16:04:54.583Z,101091.22
2023-07-03T16:07:21.346Z,101091.63
2023-07-03T16:09:48.151Z,101089.94
2023-07-03T16:12:15.772Z,101097.25
2023-07-03T16:14:43.775Z,101089.34
2023-07-03T16:17:10.665Z,101093.31
2023-07-03T16:19:37.607Z,101099.81
2023-07-03T16:22:04.712Z,101094.03
2023-07-03T16:24:31.772Z,101085.19
2023-07-03T16:26:58.609Z,101086.94
2023-07-03T16:29:25.478Z,101075.00
2023-07-03T16:31:54.267Z,101071.91
2023-07-03T16:34:21.141Z,101085.22
2023-07-03T16:36:47.979Z,101069.13
2023-07-03T16:39:17.364Z,101074.28
2023-07-03T16:41:44.280Z,101070.94
2023-07-03T16:44:11.128Z,101071.22
2023-07-03T16:46:40.120Z,101077.94
2023-07-03T16:49:07.908Z,101084.00
2023-07-03T16:51:34.691Z,101079.16
2023-07-03T16:54:02.487Z,101084.63
2023-07-03T16:56:29.799Z,101079.19
2023-07-03T16:58:59.144Z,101067.81
2023-07-03T17:01:29.610Z,101075.59
2023-07-03T17:03:57.406Z,101070.25
2023-07-03T17:06:32.898Z,101061.41
2023-07-03T17:09:01.047Z,101058.19
2023-07-03T17:11:28.254Z,101064.34
2023-07-03T17:13:55.572Z,101054.69
2023-07-03T17:16:22.869Z,101055.56
2023-07-03T17:18:49.877Z,101055.00
2023-07-03T17:21:16.943Z,101054.97
2023-07-03T17:23:44.512Z,101048.38
2023-07-03T17:26:12.274Z,101041.44
2023-07-03T17:28:39.597Z,101049.56
2023-07-03T17:31:06.669Z,101050.38
2023-07-03T17:33:33.977Z,101046.16
2023-07-03T17:36:02.987Z,101043.50
2023-07-03T17:38:30.484Z,101038.88
2023-07-03T17:40:57.294Z,101035.28
2023-07-03T17:43:24.335Z,101039.44
2023-07-03T17:45:54.290Z,101041.81
2023-07-03T17:48:22.386Z,101033.69
2023-07-03T17:50:51.175Z,101045.19
2023-07-03T17:53:22.097Z,101034.28
2023-07-03T17:55:49.270Z,101041.97
2023-07-03T17:58:16.689Z,101049.66
2023-07-03T18:00:43.477Z,101059.63
2023-07-03T18:03:10.420Z,101075.63
2023-07-03T18:05:37.764Z,101081.75
2023-07-03T18:08:05.315Z,101074.81
2023-07-03T18:10:34.225Z,101066.28
2023-07-03T18:13:01.900Z,101061.34
2023-07-03T18:15:43.637Z,101061.81
2023-07-03T18:18:15.713Z,101061.00
2023-07-03T18:20:42.560Z,101062.16
2023-07-03T18:23:09.894Z,101061.66
2023-07-03T18:25:36.816Z,101058.69
2023-07-03T18:28:04.721Z,101064.75
2023-07-03T18:30:31.889Z,101054.50
2023-07-03T18:32:58.811Z,101055.09
2023-07-03T18:35:25.887Z,101052.31
2023-07-03T18:37:53.435Z,101052.69
2023-07-03T18:40:20.609Z,101055.66
2023-07-03T18:42:47.356Z,101054.25
2023-07-03T18:45:14.280Z,101054.03
2023-07-03T18:47:41.228Z,101052.69
2023-07-03T18:50:08.840Z,101054.41
2023-07-03T18:52:35.671Z,101050.09
2023-07-03T18:55:02.533Z,101050.22
2023-07-03T18:57:29.284Z,101054.41
2023-07-03T18:59:56.031Z,101046.53
2023-07-03T19:02:22.823Z,101047.91
2023-07-03T19:04:49.749Z,101046.72
2023-07-03T19:07:16.541Z,101051.59
2023-07-03T19:09:43.417Z,101050.13
2023-07-03T19:12:10.334Z,101046.13
2023-07-03T19:14:37.243Z,101046.31
2023-07-03T19:17:05.146Z,101044.97
2023-07-03T19:19:32.024Z,101060.75
2023-07-03T19:21:58.815Z,101056.59
2023-07-03T19:24:25.605Z,101054.78
2023-07-03T19:26:52.456Z,101048.84
2023-07-03T19:29:19.416Z,101059.06
2023-07-03T19:31:46.290Z,101057.97
2023-07-03T19:34:13.108Z,101055.69
2023-07-03T19:36:39.976Z,101059.75
2023-07-03T19:39:06.814Z,101061.19
2023-07-03T19:41:33.569Z,101057.56
2023-07-03T19:44:01.388Z,101051.22
2023-07-03T19:46:28.210Z,101054.34
2023-07-03T19:48:58.268Z,101055.44
2023-07-03T19:51:25.275Z,101052.41
2023-07-03T19:53:52.068Z,101035.06
2023-07-03T19:56:21.360Z,101056.53
2023-07-03T19:58:51.381Z,101054.34
2023-07-03T20:01:18.759Z,101052.47
2023-07-03T20:03:45.987Z,101052.53
2023-07-03T20:06:14.988Z,101061.81
2023-07-03T20:08:41.865Z,101054.72
2023-07-03T20:11:10.190Z,101065.56
2023-07-03T20:13:37.302Z,101060.31
2023-07-03T20:16:04.495Z,101068.44
2023-07-03T20:18:32.706Z,101065.78
2023-07-03T20:21:04.063Z,101054.63
2023-07-03T20:23:31.219Z,101063.94
2023-07-03T20:25:58.968Z,101059.88
2023-07-03T20:28:26.352Z,101067.97
2023-07-03T20:30:55.184Z,101070.63
2023-07-03T20:33:22.314Z,101055.00
2023-07-03T20:36:03.607Z,101054.97
2023-07-03T20:38:31.048Z,101058.47
2023-07-03T20:41:00.766Z,101060.91
2023-07-03T20:43:28.538Z,101053.81
2023-07-03T20:46:04.934Z,101057.06
2023-07-03T20:48:33.279Z,101058.75
2023-07-03T20:51:03.572Z,101038.31
2023-07-03T20:53:40.957Z,101059.25
2023-07-03T20:56:09.578Z,101049.47
2023-07-03T20:58:41.446Z,101062.69
2023-07-03T21:01:15.099Z,101069.75
2023-07-03T21:03:46.752Z,101074.81
2023-07-03T21:06:18.870Z,101074.06
2023-07-03T21:08:46.934Z,101069.88
2023-07-03T21:11:16.578Z,101078.13
2023-07-03T21:13:45.086Z,101077.47
2023-07-03T21:16:14.494Z,101084.13
2023-07-03T21:18:42.361Z,101074.56
2023-07-03T21:21:13.298Z,101075.13
2023-07-03T21:23:40.690Z,101066.97
2023-07-03T21:26:08.472Z,101064.50
2023-07-03T21:28:35.444Z,101072.81
2023-07-03T21:31:02.305Z,101072.31
2023-07-03T21:33:30.267Z,101070.66
2023-07-03T21:36:16.304Z,101077.09
2023-07-03T21:38:43.968Z,101075.84
2023-07-03T21:41:16.310Z,101072.88
2023-07-03T21:43:50.172Z,101081.31
2023-07-03T21:46:19.324Z,101074.69
2023-07-03T21:48:46.947Z,101076.69
2023-07-03T21:51:18.684Z,101072.38
2023-07-03T21:53:49.382Z,101077.53
2023-07-03T21:56:20.942Z,101079.03
2023-07-03T21:58:50.782Z,101069.53
2023-07-03T22:01:31.382Z,101074.06
2023-07-03T22:03:59.352Z,101072.66
2023-07-03T22:06:27.703Z,101070.88
2023-07-03T22:08:55.784Z,101077.44
2023-07-03T22:11:23.679Z,101074.06
2023-07-03T22:13:50.903Z,101076.59
2023-07-03T22:16:18.855Z,101079.84
2023-07-03T22:18:46.198Z,101080.38
2023-07-03T22:21:13.788Z,101072.91
2023-07-03T22:23:40.631Z,101078.19
2023-07-03T22:26:08.374Z,101072.06
2023-07-03T22:28:35.189Z,101069.53
2023-07-03T22:31:02.158Z,101074.91
2023-07-03T22:33:30.343Z,101081.13
2023-07-03T22:35:57.137Z,101072.25
2023-07-03T22:38:24.044Z,101076.66
2023-07-03T22:40:51.714Z,101074.34
2023-07-03T22:43:20.379Z,101081.81
2023-07-03T22:45:47.910Z,101075.16
2023-07-03T22:48:14.874Z,101077.38
2023-07-03T22:50:42.975Z,101069.25
2023-07-03T22:53:11.142Z,101076.53
2023-07-03T22:55:41.734Z,101075.53
2023-07-03T22:58:11.911Z,101075.72
2023-07-03T23:00:40.164Z,101071.03
2023-07-03T23:03:08.195Z,101077.03
2023-07-03T23:05:40.393Z,101078.19
2023-07-03T23:08:07.259Z,101070.38
2023-07-03T23:10:34.114Z,101073.34
2023-07-03T23:13:00.953Z,101075.31
2023-07-03T23:15:28.313Z,101077.88
2023-07-03T23:17:55.152Z,101086.34
2023-07-03T23:20:22.585Z,101078.50
2023-07-03T23:22:49.403Z,101081.44
2023-07-03T23:25:16.373Z,101076.53
2023-07-03T23:27:44.703Z,101080.13
2023-07-03T23:30:11.778Z,101083.81
2023-07-03T23:32:39.176Z,101079.84
2023-07-03T23:35:06.564Z,101078.69
2023-07-03T23:37:33.370Z,101073.75
2023-07-03T23:40:01.066Z,101070.47
2023-07-03T23:42:27.956Z,101057.50
2023-07-03T23:44:54.749Z,101059.19
2023-07-03T23:47:21.744Z,101058.34
2023-07-03T23:49:50.519Z,101057.59
2023-07-03T23:52:17.396Z,101054.41
2023-07-03T23:54:44.188Z,101055.25
2023-07-03T23:57:12.197Z,101064.00
2023-07-03T23:59:39.013Z,101060.34
